sensor_id;sensor_type;location;lat;lon;timestamp;pressure;altitude;pressure_sealevel;temperature;humidity
44697;BME280;57264;47.480;19.354;2023-06-14T00:02:07;98907.94;;;11.79;88.74
44697;BME280;57264;47.480;19.354;2023-06-14T00:04:34;98911.03;;;11.88;89.03
44697;BME280;57264;47.480;19.354;2023-06-14T00:07:00;98902.50;;;11.92;88.66
44697;BME280;57264;47.480;19.354;2023-06-14T00:09:25;98906.16;;;11.91;89.03
44697;BME280;57264;47.480;19.354;2023-06-14T00:11:50;98900.91;;;11.91;89.23
44697;BME280;57264;47.480;19.354;2023-06-14T00:14:16;98903.75;;;11.90;89.11
44697;BME280;57264;47.480;19.354;2023-06-14T00:16:41;98907.25;;;11.84;88.99
44697;BME280;57264;47.480;19.354;2023-06-14T00:19:08;98907.69;;;11.81;89.44
44697;BME280;57264;47.480;19.354;2023-06-14T00:21:38;98909.66;;;11.85;89.40
44697;BME280;57264;47.480;19.354;2023-06-14T00:24:04;98916.59;;;11.80;90.30
44697;BME280;57264;47.480;19.354;2023-06-14T00:26:29;98912.50;;;11.84;89.83
44697;BME280;57264;47.480;19.354;2023-06-14T00:28:55;98905.88;;;11.81;90.55
44697;BME280;57264;47.480;19.354;2023-06-14T00:31:22;98909.47;;;11.87;90.62
44697;BME280;57264;47.480;19.354;2023-06-14T00:33:47;98908.09;;;11.96;90.51
44697;BME280;57264;47.480;19.354;2023-06-14T00:36:13;98912.94;;;11.99;90.33
44697;BME280;57264;47.480;19.354;2023-06-14T00:38:38;98908.09;;;11.96;90.70
44697;BME280;57264;47.480;19.354;2023-06-14T00:41:03;98903.09;;;11.94;90.87
44697;BME280;57264;47.480;19.354;2023-06-14T00:43:29;98901.69;;;11.92;91.28
44697;BME280;57264;47.480;19.354;2023-06-14T00:45:54;98899.84;;;11.92;91.22
44697;BME280;57264;47.480;19.354;2023-06-14T00:48:19;98900.16;;;12.02;90.68
44697;BME280;57264;47.480;19.354;2023-06-14T00:50:45;98911.69;;;12.01;91.09
44697;BME280;57264;47.480;19.354;2023-06-14T00:53:11;98903.28;;;11.93;91.39
44697;BME280;57264;47.480;19.354;2023-06-14T00:55:37;98907.09;;;11.97;91.70
44697;BME280;57264;47.480;19.354;2023-06-14T00:58:02;98905.47;;;11.96;91.91
44697;BME280;57264;47.480;19.354;2023-06-14T01:00:28;98904.81;;;12.00;91.64
44697;BME280;57264;47.480;19.354;2023-06-14T01:02:54;98904.31;;;11.92;91.39
44697;BME280;57264;47.480;19.354;2023-06-14T01:05:20;98904.25;;;11.80;92.76
44697;BME280;57264;47.480;19.354;2023-06-14T01:12:50;98908.00;;;11.72;93.33
44697;BME280;57264;47.480;19.354;2023-06-14T01:15:18;98907.78;;;11.74;93.36
44697;BME280;57264;47.480;19.354;2023-06-14T01:17:45;98908.34;;;11.76;94.08
44697;BME280;57264;47.480;19.354;2023-06-14T01:20:17;98902.75;;;11.72;94.02
44697;BME280;57264;47.480;19.354;2023-06-14T01:22:54;98899.81;;;11.62;94.44
44697;BME280;57264;47.480;19.354;2023-06-14T01:25:20;98900.25;;;11.78;93.52
44697;BME280;57264;47.480;19.354;2023-06-14T01:27:50;98892.81;;;11.75;94.03
44697;BME280;57264;47.480;19.354;2023-06-14T01:30:16;98884.38;;;11.84;93.07
44697;BME280;57264;47.480;19.354;2023-06-14T01:32:42;98898.50;;;11.71;93.48
44697;BME280;57264;47.480;19.354;2023-06-14T01:35:07;98896.53;;;11.67;94.50
44697;BME280;57264;47.480;19.354;2023-06-14T01:37:33;98901.84;;;11.60;95.22
44697;BME280;57264;47.480;19.354;2023-06-14T01:39:59;98908.06;;;11.66;93.91
44697;BME280;57264;47.480;19.354;2023-06-14T01:42:24;98891.91;;;11.62;94.80
44697;BME280;57264;47.480;19.354;2023-06-14T01:44:50;98902.06;;;11.59;94.87
44697;BME280;57264;47.480;19.354;2023-06-14T01:47:17;98899.00;;;11.62;94.03
44697;BME280;57264;47.480;19.354;2023-06-14T01:49:43;98898.91;;;11.68;92.27
44697;BME280;57264;47.480;19.354;2023-06-14T01:52:08;98900.72;;;11.68;91.72
44697;BME280;57264;47.480;19.354;2023-06-14T01:54:35;98916.97;;;11.65;91.68
44697;BME280;57264;47.480;19.354;2023-06-14T01:57:03;98897.97;;;11.63;92.05
44697;BME280;57264;47.480;19.354;2023-06-14T01:59:28;98910.78;;;11.59;91.54
44697;BME280;57264;47.480;19.354;2023-06-14T02:01:53;98911.34;;;11.61;91.53
44697;BME280;57264;47.480;19.354;2023-06-14T02:04:19;98908.00;;;11.54;91.66
44697;BME280;57264;47.480;19.354;2023-06-14T02:06:44;98915.56;;;11.44;91.76
44697;BME280;57264;47.480;19.354;2023-06-14T02:09:09;98913.38;;;11.41;91.08
44697;BME280;57264;47.480;19.354;2023-06-14T02:11:35;98915.44;;;11.39;91.13
44697;BME280;57264;47.480;19.354;2023-06-14T02:14:00;98917.25;;;11.39;90.79
44697;BME280;57264;47.480;19.354;2023-06-14T02:16:27;98918.50;;;11.54;89.20
44697;BME280;57264;47.480;19.354;2023-06-14T02:18:53;98916.63;;;11.43;89.84
44697;BME280;57264;47.480;19.354;2023-06-14T02:21:18;98912.81;;;11.39;89.92
44697;BME280;57264;47.480;19.354;2023-06-14T02:23:44;98925.50;;;11.42;88.71
44697;BME280;57264;47.480;19.354;2023-06-14T02:26:10;98925.63;;;11.29;89.64
44697;BME280;57264;47.480;19.354;2023-06-14T02:28:35;98916.91;;;11.35;89.68
44697;BME280;57264;47.480;19.354;2023-06-14T02:31:00;98918.47;;;11.36;89.20
44697;BME280;57264;47.480;19.354;2023-06-14T02:33:26;98912.38;;;11.42;88.71
44697;BME280;57264;47.480;19.354;2023-06-14T02:35:51;98909.59;;;11.55;88.07
44697;BME280;57264;47.480;19.354;2023-06-14T02:38:18;98908.72;;;11.61;87.50
44697;BME280;57264;47.480;19.354;2023-06-14T02:40:43;98921.13;;;11.54;87.45
44697;BME280;57264;47.480;19.354;2023-06-14T02:43:08;98909.81;;;11.54;87.14
44697;BME280;57264;47.480;19.354;2023-06-14T02:45:34;98907.53;;;11.57;87.02
44697;BME280;57264;47.480;19.354;2023-06-14T02:48:02;98910.31;;;11.62;87.21
44697;BME280;57264;47.480;19.354;2023-06-14T02:50:28;98914.66;;;11.75;86.51
44697;BME280;57264;47.480;19.354;2023-06-14T02:52:55;98905.19;;;11.67;86.97
44697;BME280;57264;47.480;19.354;2023-06-14T02:55:22;98909.06;;;11.65;87.24
44697;BME280;57264;47.480;19.354;2023-06-14T02:57:47;98901.47;;;11.57;87.33
44697;BME280;57264;47.480;19.354;2023-06-14T03:00:13;98901.28;;;11.58;87.30
44697;BME280;57264;47.480;19.354;2023-06-14T03:02:39;98903.59;;;11.66;86.98
44697;BME280;57264;47.480;19.354;2023-06-14T03:05:04;98906.81;;;11.68;87.18
44697;BME280;57264;47.480;19.354;2023-06-14T03:07:31;98900.53;;;11.69;86.92
44697;BME280;57264;47.480;19.354;2023-06-14T03:09:57;98908.59;;;11.75;87.31
44697;BME280;57264;47.480;19.354;2023-06-14T03:12:23;98896.00;;;11.77;87.34
44697;BME280;57264;47.480;19.354;2023-06-14T03:14:48;98902.22;;;11.82;87.40
44697;BME280;57264;47.480;19.354;2023-06-14T03:17:16;98896.06;;;11.88;87.07
44697;BME280;57264;47.480;19.354;2023-06-14T03:19:42;98893.22;;;11.90;87.23
44697;BME280;57264;47.480;19.354;2023-06-14T03:22:08;98907.25;;;11.84;88.09
44697;BME280;57264;47.480;19.354;2023-06-14T03:24:33;98899.50;;;11.89;87.12
44697;BME280;57264;47.480;19.354;2023-06-14T03:27:02;98902.50;;;11.92;87.52
44697;BME280;57264;47.480;19.354;2023-06-14T03:29:27;98894.38;;;11.94;87.32
44697;BME280;57264;47.480;19.354;2023-06-14T03:31:56;98902.84;;;11.96;87.70
44697;BME280;57264;47.480;19.354;2023-06-14T03:34:22;98904.81;;;12.00;86.74
44697;BME280;57264;47.480;19.354;2023-06-14T03:36:47;98900.88;;;12.51;84.78
44697;BME280;57264;47.480;19.354;2023-06-14T03:39:12;98899.06;;;12.63;83.26
44697;BME280;57264;47.480;19.354;2023-06-14T03:41:38;98906.53;;;13.47;80.41
44697;BME280;57264;47.480;19.354;2023-06-14T03:44:03;98896.66;;;14.84;73.57
44697;BME280;57264;47.480;19.354;2023-06-14T03:46:28;98903.72;;;15.17;72.52
44697;BME280;57264;47.480;19.354;2023-06-14T03:48:54;98901.38;;;15.37;70.71
44697;BME280;57264;47.480;19.354;2023-06-14T03:51:19;98906.78;;;15.64;71.00
44697;BME280;57264;47.480;19.354;2023-06-14T03:53:45;98898.16;;;16.22;68.32
44697;BME280;57264;47.480;19.354;2023-06-14T03:56:11;98894.56;;;16.60;66.42
44697;BME280;57264;47.480;19.354;2023-06-14T03:58:36;98905.00;;;16.45;66.34
44697;BME280;57264;47.480;19.354;2023-06-14T04:01:02;98908.19;;;17.53;63.39
44697;BME280;57264;47.480;19.354;2023-06-14T04:03:28;98904.53;;;16.80;65.15
44697;BME280;57264;47.480;19.354;2023-06-14T04:05:55;98920.44;;;16.80;64.65
44697;BME280;57264;47.480;19.354;2023-06-14T04:08:22;98910.03;;;18.35;60.83
44697;BME280;57264;47.480;19.354;2023-06-14T04:10:47;98903.41;;;16.71;64.57
44697;BME280;57264;47.480;19.354;2023-06-14T04:13:12;98902.19;;;17.77;61.62
44697;BME280;57264;47.480;19.354;2023-06-14T04:15:38;98915.31;;;18.04;61.49
44697;BME280;57264;47.480;19.354;2023-06-14T04:18:07;98909.59;;;18.73;58.33
44697;BME280;57264;47.480;19.354;2023-06-14T04:20:32;98920.13;;;17.55;62.13
44697;BME280;57264;47.480;19.354;2023-06-14T04:23:10;98916.41;;;18.23;60.25
44697;BME280;57264;47.480;19.354;2023-06-14T04:25:37;98914.63;;;18.75;58.45
44697;BME280;57264;47.480;19.354;2023-06-14T04:28:02;98918.13;;;17.72;61.41
44697;BME280;57264;47.480;19.354;2023-06-14T04:30:28;98922.13;;;19.82;55.98
44697;BME280;57264;47.480;19.354;2023-06-14T04:32:56;98922.88;;;18.88;57.68
44697;BME280;57264;47.480;19.354;2023-06-14T04:35:22;98931.56;;;18.28;59.35
44697;BME280;57264;47.480;19.354;2023-06-14T04:37:49;98928.69;;;19.26;57.06
44697;BME280;57264;47.480;19.354;2023-06-14T04:40:14;98931.00;;;19.62;56.20
44697;BME280;57264;47.480;19.354;2023-06-14T04:42:40;98925.97;;;19.61;55.09
44697;BME280;57264;47.480;19.354;2023-06-14T04:45:06;98924.66;;;20.90;51.55
44697;BME280;57264;47.480;19.354;2023-06-14T04:47:32;98926.38;;;20.81;52.62
44697;BME280;57264;47.480;19.354;2023-06-14T04:49:59;98936.00;;;19.79;54.00
44697;BME280;57264;47.480;19.354;2023-06-14T04:52:25;98925.69;;;21.52;50.50
44697;BME280;57264;47.480;19.354;2023-06-14T04:54:52;98930.56;;;20.09;53.02
44697;BME280;57264;47.480;19.354;2023-06-14T04:57:19;98940.59;;;20.23;52.76
44697;BME280;57264;47.480;19.354;2023-06-14T04:59:47;98935.25;;;21.34;49.98
44697;BME280;57264;47.480;19.354;2023-06-14T05:02:12;98929.22;;;22.89;46.34
44697;BME280;57264;47.480;19.354;2023-06-14T05:04:38;98942.69;;;22.09;49.09
44697;BME280;57264;47.480;19.354;2023-06-14T05:07:07;98939.81;;;24.80;41.89
44697;BME280;57264;47.480;19.354;2023-06-14T05:09:34;98939.66;;;24.54;42.11
44697;BME280;57264;47.480;19.354;2023-06-14T05:11:59;98928.38;;;25.49;41.25
44697;BME280;57264;47.480;19.354;2023-06-14T05:14:25;98944.44;;;23.53;45.25
44697;BME280;57264;47.480;19.354;2023-06-14T05:16:51;98942.75;;;23.84;43.15
44697;BME280;57264;47.480;19.354;2023-06-14T05:19:17;98942.13;;;24.01;43.15
44697;BME280;57264;47.480;19.354;2023-06-14T05:21:43;98953.50;;;22.92;46.00
44697;BME280;57264;47.480;19.354;2023-06-14T05:24:09;98943.22;;;24.00;43.89
44697;BME280;57264;47.480;19.354;2023-06-14T05:26:34;98946.41;;;23.47;44.20
44697;BME280;57264;47.480;19.354;2023-06-14T05:29:00;98953.25;;;22.37;46.35
44697;BME280;57264;47.480;19.354;2023-06-14T05:31:26;98949.91;;;21.84;48.79
44697;BME280;57264;47.480;19.354;2023-06-14T05:33:52;98947.91;;;22.37;47.79
44697;BME280;57264;47.480;19.354;2023-06-14T05:36:18;98954.81;;;22.01;48.71
44697;BME280;57264;47.480;19.354;2023-06-14T05:38:44;98949.50;;;22.38;47.07
44697;BME280;57264;47.480;19.354;2023-06-14T05:41:10;98953.03;;;22.34;49.04
44697;BME280;57264;47.480;19.354;2023-06-14T05:43:36;98943.94;;;24.19;44.14
44697;BME280;57264;47.480;19.354;2023-06-14T05:46:01;98950.03;;;24.69;43.54
44697;BME280;57264;47.480;19.354;2023-06-14T05:48:26;98952.97;;;22.76;45.98
44697;BME280;57264;47.480;19.354;2023-06-14T05:50:52;98956.25;;;23.79;43.80
44697;BME280;57264;47.480;19.354;2023-06-14T05:53:17;98948.22;;;23.06;46.61
44697;BME280;57264;47.480;19.354;2023-06-14T05:55:42;98951.50;;;21.38;50.11
44697;BME280;57264;47.480;19.354;2023-06-14T05:58:08;98965.41;;;20.18;54.95
44697;BME280;57264;47.480;19.354;2023-06-14T06:00:33;98969.97;;;20.13;55.13
44697;BME280;57264;47.480;19.354;2023-06-14T06:02:59;98973.66;;;19.52;56.02
44697;BME280;57264;47.480;19.354;2023-06-14T06:05:24;98967.81;;;19.00;58.71
44697;BME280;57264;47.480;19.354;2023-06-14T06:07:49;98970.72;;;19.44;58.68
44697;BME280;57264;47.480;19.354;2023-06-14T06:10:15;98972.34;;;18.79;59.98
44697;BME280;57264;47.480;19.354;2023-06-14T06:12:41;98971.81;;;18.92;59.22
44697;BME280;57264;47.480;19.354;2023-06-14T06:15:06;98968.59;;;19.15;58.82
44697;BME280;57264;47.480;19.354;2023-06-14T06:17:32;98970.72;;;19.34;57.97
44697;BME280;57264;47.480;19.354;2023-06-14T06:19:58;98971.81;;;18.77;60.15
44697;BME280;57264;47.480;19.354;2023-06-14T06:22:23;98969.13;;;18.67;60.35
44697;BME280;57264;47.480;19.354;2023-06-14T06:24:49;98977.66;;;19.45;58.99
44697;BME280;57264;47.480;19.354;2023-06-14T06:27:15;98975.47;;;19.67;57.86
44697;BME280;57264;47.480;19.354;2023-06-14T06:29:41;98978.69;;;19.39;60.05
44697;BME280;57264;47.480;19.354;2023-06-14T06:32:08;98980.53;;;19.74;56.70
44697;BME280;57264;47.480;19.354;2023-06-14T06:34:33;98989.44;;;20.03;56.68
44697;BME280;57264;47.480;19.354;2023-06-14T06:36:58;98983.75;;;19.30;58.45
44697;BME280;57264;47.480;19.354;2023-06-14T06:39:24;98978.38;;;19.76;56.47
44697;BME280;57264;47.480;19.354;2023-06-14T06:41:49;98981.22;;;19.94;57.97
44697;BME280;57264;47.480;19.354;2023-06-14T06:44:14;98984.44;;;20.50;55.72
44697;BME280;57264;47.480;19.354;2023-06-14T06:46:40;98981.50;;;20.52;55.88
44697;BME280;57264;47.480;19.354;2023-06-14T06:49:09;98990.28;;;20.58;56.11
44697;BME280;57264;47.480;19.354;2023-06-14T06:51:35;98976.69;;;21.27;55.68
44697;BME280;57264;47.480;19.354;2023-06-14T06:54:00;98984.00;;;19.69;55.93
44697;BME280;57264;47.480;19.354;2023-06-14T06:56:25;98979.78;;;19.43;60.25
44697;BME280;57264;47.480;19.354;2023-06-14T06:58:52;98980.47;;;19.94;57.03
44697;BME280;57264;47.480;19.354;2023-06-14T07:01:17;98975.78;;;20.25;57.62
44697;BME280;57264;47.480;19.354;2023-06-14T07:03:44;98980.47;;;20.48;57.62
44697;BME280;57264;47.480;19.354;2023-06-14T07:06:09;98985.53;;;20.88;54.70
44697;BME280;57264;47.480;19.354;2023-06-14T07:08:35;98970.16;;;21.90;50.14
44697;BME280;57264;47.480;19.354;2023-06-14T07:11:01;98969.09;;;22.71;49.79
44697;BME280;57264;47.480;19.354;2023-06-14T07:13:27;98977.22;;;20.56;51.99
44697;BME280;57264;47.480;19.354;2023-06-14T07:15:57;98969.22;;;22.24;49.15
44697;BME280;57264;47.480;19.354;2023-06-14T07:18:23;98966.94;;;23.06;48.77
44697;BME280;57264;47.480;19.354;2023-06-14T07:20:48;98970.38;;;22.55;50.67
44697;BME280;57264;47.480;19.354;2023-06-14T07:23:15;98976.41;;;21.57;50.44
44697;BME280;57264;47.480;19.354;2023-06-14T07:25:40;98970.69;;;22.72;48.37
44697;BME280;57264;47.480;19.354;2023-06-14T07:28:06;98971.16;;;22.93;49.09
44697;BME280;57264;47.480;19.354;2023-06-14T07:30:32;98973.00;;;23.11;45.71
44697;BME280;57264;47.480;19.354;2023-06-14T07:32:57;98975.75;;;21.41;51.06
44697;BME280;57264;47.480;19.354;2023-06-14T07:35:23;98976.53;;;22.37;50.45
44697;BME280;57264;47.480;19.354;2023-06-14T07:37:48;98972.50;;;22.77;48.30
44697;BME280;57264;47.480;19.354;2023-06-14T07:40:15;98964.88;;;24.53;44.48
44697;BME280;57264;47.480;19.354;2023-06-14T07:42:40;98959.44;;;23.95;45.61
44697;BME280;57264;47.480;19.354;2023-06-14T07:45:05;98976.63;;;22.69;46.45
44697;BME280;57264;47.480;19.354;2023-06-14T07:47:31;98991.34;;;20.95;49.31
44697;BME280;57264;47.480;19.354;2023-06-14T07:49:57;98976.19;;;21.77;49.62
44697;BME280;57264;47.480;19.354;2023-06-14T07:52:24;98989.34;;;21.45;48.66
44697;BME280;57264;47.480;19.354;2023-06-14T07:54:50;98991.78;;;21.08;51.06
44697;BME280;57264;47.480;19.354;2023-06-14T07:57:16;98994.81;;;20.96;52.28
44697;BME280;57264;47.480;19.354;2023-06-14T07:59:41;98995.50;;;20.78;52.65
44697;BME280;57264;47.480;19.354;2023-06-14T08:02:06;98998.41;;;20.81;50.81
44697;BME280;57264;47.480;19.354;2023-06-14T08:04:32;98993.13;;;21.39;48.66
44697;BME280;57264;47.480;19.354;2023-06-14T08:06:58;98994.97;;;20.76;50.55
44697;BME280;57264;47.480;19.354;2023-06-14T08:09:24;98996.44;;;21.55;50.02
44697;BME280;57264;47.480;19.354;2023-06-14T08:11:50;98990.63;;;21.19;52.21
44697;BME280;57264;47.480;19.354;2023-06-14T08:14:16;98997.31;;;21.50;51.55
44697;BME280;57264;47.480;19.354;2023-06-14T08:16:41;98997.34;;;21.98;52.37
44697;BME280;57264;47.480;19.354;2023-06-14T08:19:07;98994.81;;;22.30;49.87
44697;BME280;57264;47.480;19.354;2023-06-14T08:21:32;98994.81;;;22.30;50.08
44697;BME280;57264;47.480;19.354;2023-06-14T08:23:58;98993.22;;;21.81;49.76
44697;BME280;57264;47.480;19.354;2023-06-14T08:26:24;98997.50;;;21.30;51.64
44697;BME280;57264;47.480;19.354;2023-06-14T08:28:57;98995.91;;;22.66;47.26
44697;BME280;57264;47.480;19.354;2023-06-14T08:31:25;98996.09;;;22.32;47.98
44697;BME280;57264;47.480;19.354;2023-06-14T08:33:50;98996.22;;;23.16;47.15
44697;BME280;57264;47.480;19.354;2023-06-14T08:36:16;98998.69;;;23.12;47.56
44697;BME280;57264;47.480;19.354;2023-06-14T08:38:41;99006.31;;;23.38;46.59
44697;BME280;57264;47.480;19.354;2023-06-14T08:41:06;99006.66;;;23.31;46.87
44697;BME280;57264;47.480;19.354;2023-06-14T08:43:33;98994.78;;;23.69;42.27
44697;BME280;57264;47.480;19.354;2023-06-14T08:45:59;99015.00;;;21.99;47.14
44697;BME280;57264;47.480;19.354;2023-06-14T08:48:29;99009.03;;;21.25;48.67
44697;BME280;57264;47.480;19.354;2023-06-14T08:50:59;99018.81;;;21.87;48.41
44697;BME280;57264;47.480;19.354;2023-06-14T08:53:36;99021.19;;;21.65;47.40
44697;BME280;57264;47.480;19.354;2023-06-14T08:56:07;99024.09;;;21.69;45.75
44697;BME280;57264;47.480;19.354;2023-06-14T08:58:39;99018.72;;;22.40;45.89
44697;BME280;57264;47.480;19.354;2023-06-14T09:01:08;99024.09;;;21.40;44.67
44697;BME280;57264;47.480;19.354;2023-06-14T09:03:37;99020.06;;;22.43;47.49
44697;BME280;57264;47.480;19.354;2023-06-14T09:06:06;99025.34;;;22.85;45.21
44697;BME280;57264;47.480;19.354;2023-06-14T09:08:34;99021.94;;;23.49;43.70
44697;BME280;57264;47.480;19.354;2023-06-14T09:11:03;99025.34;;;23.04;43.92
44697;BME280;57264;47.480;19.354;2023-06-14T09:13:30;99028.41;;;23.29;43.18
44697;BME280;57264;47.480;19.354;2023-06-14T09:15:55;99029.00;;;22.33;44.62
44697;BME280;57264;47.480;19.354;2023-06-14T09:18:21;99032.78;;;22.51;45.60
44697;BME280;57264;47.480;19.354;2023-06-14T09:20:46;99033.00;;;22.54;46.80
44697;BME280;57264;47.480;19.354;2023-06-14T09:23:13;99031.25;;;22.63;46.38
44697;BME280;57264;47.480;19.354;2023-06-14T09:25:42;99036.78;;;21.82;47.57
44697;BME280;57264;47.480;19.354;2023-06-14T09:28:09;99031.34;;;22.58;44.82
44697;BME280;57264;47.480;19.354;2023-06-14T09:30:35;99030.88;;;23.07;43.27
44697;BME280;57264;47.480;19.354;2023-06-14T09:33:00;99030.44;;;22.87;43.30
44697;BME280;57264;47.480;19.354;2023-06-14T09:35:26;99027.84;;;22.39;42.12
44697;BME280;57264;47.480;19.354;2023-06-14T09:37:54;99020.25;;;23.21;42.36
44697;BME280;57264;47.480;19.354;2023-06-14T09:40:20;99014.56;;;22.34;42.63
44697;BME280;57264;47.480;19.354;2023-06-14T09:42:46;99014.47;;;22.39;43.08
44697;BME280;57264;47.480;19.354;2023-06-14T09:45:12;99022.72;;;22.61;41.94
44697;BME280;57264;47.480;19.354;2023-06-14T09:47:39;99012.03;;;22.19;42.93
44697;BME280;57264;47.480;19.354;2023-06-14T09:50:04;99004.75;;;22.06;41.06
44697;BME280;57264;47.480;19.354;2023-06-14T09:52:30;99010.16;;;21.72;41.40
44697;BME280;57264;47.480;19.354;2023-06-14T09:54:56;99008.09;;;21.92;41.58
44697;BME280;57264;47.480;19.354;2023-06-14T09:57:24;99013.75;;;21.86;41.68
44697;BME280;57264;47.480;19.354;2023-06-14T09:59:52;99006.31;;;22.07;41.75
44697;BME280;57264;47.480;19.354;2023-06-14T10:02:21;99000.91;;;22.54;42.02
44697;BME280;57264;47.480;19.354;2023-06-14T10:07:18;98998.97;;;22.78;41.35
44697;BME280;57264;47.480;19.354;2023-06-14T10:09:45;99000.63;;;21.89;42.98
44697;BME280;57264;47.480;19.354;2023-06-14T10:12:16;99001.19;;;22.34;44.32
44697;BME280;57264;47.480;19.354;2023-06-14T10:14:49;98999.41;;;23.18;40.30
44697;BME280;57264;47.480;19.354;2023-06-14T10:17:26;98994.06;;;23.18;40.35
44697;BME280;57264;47.480;19.354;2023-06-14T10:22:32;98993.34;;;23.12;38.06
44697;BME280;57264;47.480;19.354;2023-06-14T10:24:59;98990.22;;;23.38;40.23
44697;BME280;57264;47.480;19.354;2023-06-14T10:27:24;98993.88;;;22.58;38.82
44697;BME280;57264;47.480;19.354;2023-06-14T10:32:18;98992.19;;;23.92;39.53
44697;BME280;57264;47.480;19.354;2023-06-14T10:34:44;98994.94;;;22.20;38.41
44697;BME280;57264;47.480;19.354;2023-06-14T10:37:13;98994.06;;;22.06;38.93
44697;BME280;57264;47.480;19.354;2023-06-14T10:39:43;98995.84;;;21.86;41.64
44697;BME280;57264;47.480;19.354;2023-06-14T10:42:12;98998.28;;;22.07;43.49
44697;BME280;57264;47.480;19.354;2023-06-14T10:44:38;98993.84;;;21.73;40.47
44697;BME280;57264;47.480;19.354;2023-06-14T10:49:50;99000.53;;;21.47;42.20
44697;BME280;57264;47.480;19.354;2023-06-14T10:52:17;99002.69;;;21.45;41.35
44697;BME280;57264;47.480;19.354;2023-06-14T10:57:31;99011.22;;;20.74;44.42
44697;BME280;57264;47.480;19.354;2023-06-14T10:59:59;99008.28;;;20.27;43.21
44697;BME280;57264;47.480;19.354;2023-06-14T11:05:26;98996.84;;;21.09;42.06
44697;BME280;57264;47.480;19.354;2023-06-14T11:13:06;98979.06;;;21.57;39.97
44697;BME280;57264;47.480;19.354;2023-06-14T11:15:32;98977.13;;;22.90;39.35
44697;BME280;57264;47.480;19.354;2023-06-14T11:18:00;98975.84;;;23.01;38.96
44697;BME280;57264;47.480;19.354;2023-06-14T11:20:26;98971.31;;;24.16;40.40
44697;BME280;57264;47.480;19.354;2023-06-14T11:22:52;98975.78;;;23.20;38.55
44697;BME280;57264;47.480;19.354;2023-06-14T11:25:18;98973.34;;;22.72;39.22
44697;BME280;57264;47.480;19.354;2023-06-14T11:27:49;98980.00;;;22.75;39.56
44697;BME280;57264;47.480;19.354;2023-06-14T11:30:14;98971.75;;;22.90;40.67
44697;BME280;57264;47.480;19.354;2023-06-14T11:32:40;98977.69;;;22.87;39.11
44697;BME280;57264;47.480;19.354;2023-06-14T11:35:06;98968.47;;;23.99;39.73
44697;BME280;57264;47.480;19.354;2023-06-14T11:37:31;98958.41;;;24.04;39.70
44697;BME280;57264;47.480;19.354;2023-06-14T11:40:00;98960.72;;;23.56;36.94
44697;BME280;57264;47.480;19.354;2023-06-14T11:42:28;98963.72;;;22.90;38.85
44697;BME280;57264;47.480;19.354;2023-06-14T11:44:54;98972.59;;;23.04;41.30
44697;BME280;57264;47.480;19.354;2023-06-14T11:47:19;98963.06;;;22.79;38.04
44697;BME280;57264;47.480;19.354;2023-06-14T11:49:45;98967.75;;;23.06;37.95
44697;BME280;57264;47.480;19.354;2023-06-14T11:52:11;98954.09;;;23.35;39.65
44697;BME280;57264;47.480;19.354;2023-06-14T11:54:37;98961.22;;;23.86;37.71
44697;BME280;57264;47.480;19.354;2023-06-14T11:57:03;98959.28;;;22.99;38.89
44697;BME280;57264;47.480;19.354;2023-06-14T11:59:28;98960.16;;;23.41;39.40
44697;BME280;57264;47.480;19.354;2023-06-14T12:01:56;98955.81;;;23.99;36.97
44697;BME280;57264;47.480;19.354;2023-06-14T12:04:26;98955.84;;;23.86;38.09
44697;BME280;57264;47.480;19.354;2023-06-14T12:06:52;98965.16;;;24.29;38.94
44697;BME280;57264;47.480;19.354;2023-06-14T12:09:18;98971.56;;;23.19;37.78
44697;BME280;57264;47.480;19.354;2023-06-14T12:11:44;98964.88;;;22.65;39.61
44697;BME280;57264;47.480;19.354;2023-06-14T12:14:10;98967.75;;;23.52;37.77
44697;BME280;57264;47.480;19.354;2023-06-14T12:16:37;98965.38;;;23.64;34.35
44697;BME280;57264;47.480;19.354;2023-06-14T12:19:16;98960.38;;;23.30;36.56
44697;BME280;57264;47.480;19.354;2023-06-14T12:21:42;98956.66;;;23.72;37.43
44697;BME280;57264;47.480;19.354;2023-06-14T12:24:08;98955.50;;;24.64;35.39
44697;BME280;57264;47.480;19.354;2023-06-14T12:26:37;98955.47;;;24.78;34.12
44697;BME280;57264;47.480;19.354;2023-06-14T12:29:04;98957.34;;;24.55;32.35
44697;BME280;57264;47.480;19.354;2023-06-14T12:31:30;98951.09;;;24.68;33.31
44697;BME280;57264;47.480;19.354;2023-06-14T12:33:55;98948.44;;;24.32;33.87
44697;BME280;57264;47.480;19.354;2023-06-14T12:36:21;98950.22;;;24.37;32.74
44697;BME280;57264;47.480;19.354;2023-06-14T12:38:46;98959.22;;;24.05;34.64
44697;BME280;57264;47.480;19.354;2023-06-14T12:41:11;98945.59;;;23.88;31.73
44697;BME280;57264;47.480;19.354;2023-06-14T12:43:39;98958.69;;;24.30;31.14
44697;BME280;57264;47.480;19.354;2023-06-14T12:46:04;98954.53;;;23.97;30.73
44697;BME280;57264;47.480;19.354;2023-06-14T12:48:29;98958.19;;;24.28;32.37
44697;BME280;57264;47.480;19.354;2023-06-14T12:50:56;98953.66;;;24.01;33.85
44697;BME280;57264;47.480;19.354;2023-06-14T12:53:22;98953.75;;;24.82;34.19
44697;BME280;57264;47.480;19.354;2023-06-14T12:55:48;98953.59;;;24.42;32.54
44697;BME280;57264;47.480;19.354;2023-06-14T12:58:13;98945.22;;;23.81;35.81
44697;BME280;57264;47.480;19.354;2023-06-14T13:00:39;98956.38;;;23.28;37.14
44697;BME280;57264;47.480;19.354;2023-06-14T13:03:05;98956.09;;;22.97;40.91
44697;BME280;57264;47.480;19.354;2023-06-14T13:05:30;98947.94;;;22.89;39.27
44697;BME280;57264;47.480;19.354;2023-06-14T13:07:58;98950.78;;;22.41;38.51
44697;BME280;57264;47.480;19.354;2023-06-14T13:10:24;98958.44;;;23.77;38.09
44697;BME280;57264;47.480;19.354;2023-06-14T13:12:51;98952.34;;;22.98;37.91